sensor_id;sensor_type;location;lat;lon;timestamp;temperature;humidity
65072;DHT22;51663;52.310;17.016;2023-04-07T00:01:06;26.40;24.20
65072;DHT22;51663;52.310;17.016;2023-04-07T00:04:08;26.20;23.90
65072;DHT22;51663;52.310;17.016;2023-04-07T00:07:11;25.90;24.50
65072;DHT22;51663;52.310;17.016;2023-04-07T00:10:13;26.00;24.40
65072;DHT22;51663;52.310;17.016;2023-04-07T00:13:15;25.70;25.50
65072;DHT22;51663;52.310;17.016;2023-04-07T00:16:17;25.90;25.10
65072;DHT22;51663;52.310;17.016;2023-04-07T00:19:20;25.70;25.10
65072;DHT22;51663;52.310;17.016;2023-04-07T00:22:22;26.50;24.70
65072;DHT22;51663;52.310;17.016;2023-04-07T00:25:24;26.80;24.10
65072;DHT22;51663;52.310;17.016;2023-04-07T00:28:26;27.00;24.20
65072;DHT22;51663;52.310;17.016;2023-04-07T00:31:28;26.80;23.90
65072;DHT22;51663;52.310;17.016;2023-04-07T00:34:31;26.40;24.30
65072;DHT22;51663;52.310;17.016;2023-04-07T00:37:33;27.00;24.30
65072;DHT22;51663;52.310;17.016;2023-04-07T00:40:35;26.60;23.90
65072;DHT22;51663;52.310;17.016;2023-04-07T00:43:38;26.20;24.50
65072;DHT22;51663;52.310;17.016;2023-04-07T00:46:40;25.40;25.50
65072;DHT22;51663;52.310;17.016;2023-04-07T00:49:42;24.40;26.70
65072;DHT22;51663;52.310;17.016;2023-04-07T00:52:45;23.90;27.10
65072;DHT22;51663;52.310;17.016;2023-04-07T00:55:47;24.60;26.70
65072;DHT22;51663;52.310;17.016;2023-04-07T00:58:49;24.60;26.50
65072;DHT22;51663;52.310;17.016;2023-04-07T01:02:10;24.20;27.20
65072;DHT22;51663;52.310;17.016;2023-04-07T01:05:45;24.60;26.90
65072;DHT22;51663;52.310;17.016;2023-04-07T01:12:38;23.90;27.70
65072;DHT22;51663;52.310;17.016;2023-04-07T01:15:48;24.20;27.90
65072;DHT22;51663;52.310;17.016;2023-04-07T01:18:54;24.50;27.30
65072;DHT22;51663;52.310;17.016;2023-04-07T01:21:59;24.40;27.70
65072;DHT22;51663;52.310;17.016;2023-04-07T01:31:40;23.30;28.50
65072;DHT22;51663;52.310;17.016;2023-04-07T01:34:46;22.70;29.40
65072;DHT22;51663;52.310;17.016;2023-04-07T01:37:50;22.10;29.90
65072;DHT22;51663;52.310;17.016;2023-04-07T01:40:54;22.80;29.80
65072;DHT22;51663;52.310;17.016;2023-04-07T01:43:57;23.50;29.20
65072;DHT22;51663;52.310;17.016;2023-04-07T01:47:01;23.00;29.10
65072;DHT22;51663;52.310;17.016;2023-04-07T01:50:04;22.70;29.70
65072;DHT22;51663;52.310;17.016;2023-04-07T01:53:10;22.80;29.80
65072;DHT22;51663;52.310;17.016;2023-04-07T01:56:12;23.10;29.40
65072;DHT22;51663;52.310;17.016;2023-04-07T01:59:15;22.70;30.10
65072;DHT22;51663;52.310;17.016;2023-04-07T02:02:17;22.50;29.90
65072;DHT22;51663;52.310;17.016;2023-04-07T02:05:20;23.40;29.20
65072;DHT22;51663;52.310;17.016;2023-04-07T02:08:26;22.30;30.00
65072;DHT22;51663;52.310;17.016;2023-04-07T02:11:32;22.20;30.90
65072;DHT22;51663;52.310;17.016;2023-04-07T02:14:35;22.60;30.30
65072;DHT22;51663;52.310;17.016;2023-04-07T02:17:50;22.50;30.00
65072;DHT22;51663;52.310;17.016;2023-04-07T02:20:53;22.20;30.30
65072;DHT22;51663;52.310;17.016;2023-04-07T02:24:05;22.10;30.80
65072;DHT22;51663;52.310;17.016;2023-04-07T02:27:08;21.80;31.70
65072;DHT22;51663;52.310;17.016;2023-04-07T02:30:10;22.50;30.60
65072;DHT22;51663;52.310;17.016;2023-04-07T02:33:12;22.40;30.60
65072;DHT22;51663;52.310;17.016;2023-04-07T02:36:15;23.00;30.00
65072;DHT22;51663;52.310;17.016;2023-04-07T02:39:17;22.60;29.80
65072;DHT22;51663;52.310;17.016;2023-04-07T02:42:19;22.30;30.80
65072;DHT22;51663;52.310;17.016;2023-04-07T02:45:21;22.40;30.90
65072;DHT22;51663;52.310;17.016;2023-04-07T02:48:24;22.60;30.30
65072;DHT22;51663;52.310;17.016;2023-04-07T02:51:26;22.10;30.40
65072;DHT22;51663;52.310;17.016;2023-04-07T02:54:28;21.90;31.60
65072;DHT22;51663;52.310;17.016;2023-04-07T02:57:30;22.10;30.80
65072;DHT22;51663;52.310;17.016;2023-04-07T03:00:33;22.50;30.90
65072;DHT22;51663;52.310;17.016;2023-04-07T03:03:35;23.20;30.00
65072;DHT22;51663;52.310;17.016;2023-04-07T03:06:37;22.70;30.10
65072;DHT22;51663;52.310;17.016;2023-04-07T03:09:39;22.10;31.10
65072;DHT22;51663;52.310;17.016;2023-04-07T03:12:42;21.70;31.80
65072;DHT22;51663;52.310;17.016;2023-04-07T03:15:44;22.70;30.50
65072;DHT22;51663;52.310;17.016;2023-04-07T03:18:47;21.70;31.90
65072;DHT22;51663;52.310;17.016;2023-04-07T03:21:49;21.40;31.90
65072;DHT22;51663;52.310;17.016;2023-04-07T03:24:51;21.70;32.50
65072;DHT22;51663;52.310;17.016;2023-04-07T03:27:53;21.90;31.80
65072;DHT22;51663;52.310;17.016;2023-04-07T03:30:56;22.10;31.70
65072;DHT22;51663;52.310;17.016;2023-04-07T03:33:58;21.80;31.60
65072;DHT22;51663;52.310;17.016;2023-04-07T03:37:00;22.20;31.30
65072;DHT22;51663;52.310;17.016;2023-04-07T03:40:02;21.80;32.00
65072;DHT22;51663;52.310;17.016;2023-04-07T03:43:04;22.30;31.40
65072;DHT22;51663;52.310;17.016;2023-04-07T03:46:07;23.10;30.40
65072;DHT22;51663;52.310;17.016;2023-04-07T03:49:10;22.40;30.70
65072;DHT22;51663;52.310;17.016;2023-04-07T03:52:12;22.60;30.80
65072;DHT22;51663;52.310;17.016;2023-04-07T03:55:14;23.00;30.00
65072;DHT22;51663;52.310;17.016;2023-04-07T03:58:16;23.10;30.00
65072;DHT22;51663;52.310;17.016;2023-04-07T04:01:18;23.00;30.60
65072;DHT22;51663;52.310;17.016;2023-04-07T04:04:21;23.60;29.80
65072;DHT22;51663;52.310;17.016;2023-04-07T04:07:29;24.10;29.20
65072;DHT22;51663;52.310;17.016;2023-04-07T04:10:41;24.10;28.80
65072;DHT22;51663;52.310;17.016;2023-04-07T04:13:45;24.60;28.80
65072;DHT22;51663;52.310;17.016;2023-04-07T04:16:47;24.40;28.50
65072;DHT22;51663;52.310;17.016;2023-04-07T04:19:49;23.50;29.40
65072;DHT22;51663;52.310;17.016;2023-04-07T04:22:51;23.50;29.60
65072;DHT22;51663;52.310;17.016;2023-04-07T04:25:54;23.50;30.00
65072;DHT22;51663;52.310;17.016;2023-04-07T04:28:57;23.50;29.30
65072;DHT22;51663;52.310;17.016;2023-04-07T04:31:59;22.60;31.50
65072;DHT22;51663;52.310;17.016;2023-04-07T04:35:01;23.40;30.00
65072;DHT22;51663;52.310;17.016;2023-04-07T04:38:04;22.90;30.30
65072;DHT22;51663;52.310;17.016;2023-04-07T04:41:06;22.30;31.40
65072;DHT22;51663;52.310;17.016;2023-04-07T04:44:08;22.10;32.00
65072;DHT22;51663;52.310;17.016;2023-04-07T04:47:10;21.60;33.60
65072;DHT22;51663;52.310;17.016;2023-04-07T04:50:13;21.80;32.30
65072;DHT22;51663;52.310;17.016;2023-04-07T04:53:15;21.40;32.70
65072;DHT22;51663;52.310;17.016;2023-04-07T04:56:17;21.90;32.50
65072;DHT22;51663;52.310;17.016;2023-04-07T04:59:19;22.60;31.90
65072;DHT22;51663;52.310;17.016;2023-04-07T05:02:21;22.00;32.50
65072;DHT22;51663;52.310;17.016;2023-04-07T05:05:24;22.50;31.70
65072;DHT22;51663;52.310;17.016;2023-04-07T05:08:26;22.40;32.00
65072;DHT22;51663;52.310;17.016;2023-04-07T05:11:28;22.20;32.20
65072;DHT22;51663;52.310;17.016;2023-04-07T05:14:30;21.10;33.80
65072;DHT22;51663;52.310;17.016;2023-04-07T05:17:32;21.50;33.60
65072;DHT22;51663;52.310;17.016;2023-04-07T05:20:35;21.80;33.10
65072;DHT22;51663;52.310;17.016;2023-04-07T05:23:37;22.20;32.30
65072;DHT22;51663;52.310;17.016;2023-04-07T05:26:39;21.70;32.90
65072;DHT22;51663;52.310;17.016;2023-04-07T05:29:41;22.00;33.50
65072;DHT22;51663;52.310;17.016;2023-04-07T05:32:43;22.70;31.70
65072;DHT22;51663;52.310;17.016;2023-04-07T05:35:45;23.40;30.70
65072;DHT22;51663;52.310;17.016;2023-04-07T05:38:48;23.80;30.20
65072;DHT22;51663;52.310;17.016;2023-04-07T05:41:50;23.90;30.20
65072;DHT22;51663;52.310;17.016;2023-04-07T05:44:53;24.30;29.40
65072;DHT22;51663;52.310;17.016;2023-04-07T05:47:55;23.60;30.40
65072;DHT22;51663;52.310;17.016;2023-04-07T05:50:57;23.80;30.40
65072;DHT22;51663;52.310;17.016;2023-04-07T05:54:01;23.40;30.20
65072;DHT22;51663;52.310;17.016;2023-04-07T05:57:05;23.20;30.90
65072;DHT22;51663;52.310;17.016;2023-04-07T06:00:07;23.20;31.00
65072;DHT22;51663;52.310;17.016;2023-04-07T06:03:10;23.70;30.00
65072;DHT22;51663;52.310;17.016;2023-04-07T06:06:14;24.20;29.90
65072;DHT22;51663;52.310;17.016;2023-04-07T06:09:16;24.00;29.80
65072;DHT22;51663;52.310;17.016;2023-04-07T06:12:18;24.70;29.30
65072;DHT22;51663;52.310;17.016;2023-04-07T06:15:20;24.10;30.10
65072;DHT22;51663;52.310;17.016;2023-04-07T06:18:23;24.40;29.60
65072;DHT22;51663;52.310;17.016;2023-04-07T06:21:26;24.10;29.90
65072;DHT22;51663;52.310;17.016;2023-04-07T06:24:28;24.40;29.50
65072;DHT22;51663;52.310;17.016;2023-04-07T06:27:30;24.80;29.20
65072;DHT22;51663;52.310;17.016;2023-04-07T06:30:33;25.40;28.50
65072;DHT22;51663;52.310;17.016;2023-04-07T06:33:36;24.00;29.40
65072;DHT22;51663;52.310;17.016;2023-04-07T06:36:38;24.20;30.00
65072;DHT22;51663;52.310;17.016;2023-04-07T06:39:41;24.20;29.90
65072;DHT22;51663;52.310;17.016;2023-04-07T06:42:43;24.40;29.60
65072;DHT22;51663;52.310;17.016;2023-04-07T06:45:45;24.40;29.50
65072;DHT22;51663;52.310;17.016;2023-04-07T06:48:47;24.40;29.80
65072;DHT22;51663;52.310;17.016;2023-04-07T06:51:49;24.30;30.00
65072;DHT22;51663;52.310;17.016;2023-04-07T06:54:51;24.40;29.60
65072;DHT22;51663;52.310;17.016;2023-04-07T06:57:54;24.40;29.90
65072;DHT22;51663;52.310;17.016;2023-04-07T07:00:56;24.90;29.50
65072;DHT22;51663;52.310;17.016;2023-04-07T07:03:58;24.60;29.50
65072;DHT22;51663;52.310;17.016;2023-04-07T07:07:02;24.40;30.40
65072;DHT22;51663;52.310;17.016;2023-04-07T07:10:07;24.10;30.20
65072;DHT22;51663;52.310;17.016;2023-04-07T07:13:10;23.80;31.60
65072;DHT22;51663;52.310;17.016;2023-04-07T07:16:12;23.40;32.00
65072;DHT22;51663;52.310;17.016;2023-04-07T07:19:14;23.10;31.90
65072;DHT22;51663;52.310;17.016;2023-04-07T07:22:17;22.90;32.60
65072;DHT22;51663;52.310;17.016;2023-04-07T07:25:19;22.80;33.00
65072;DHT22;51663;52.310;17.016;2023-04-07T07:28:22;23.50;32.10
65072;DHT22;51663;52.310;17.016;2023-04-07T07:31:24;24.00;30.70
65072;DHT22;51663;52.310;17.016;2023-04-07T07:34:27;24.40;30.60
65072;DHT22;51663;52.310;17.016;2023-04-07T07:37:29;24.70;30.00
65072;DHT22;51663;52.310;17.016;2023-04-07T07:40:42;24.40;30.50
65072;DHT22;51663;52.310;17.016;2023-04-07T07:44:03;24.80;30.10
65072;DHT22;51663;52.310;17.016;2023-04-07T07:47:06;24.70;30.00
65072;DHT22;51663;52.310;17.016;2023-04-07T07:50:08;24.40;30.30
65072;DHT22;51663;52.310;17.016;2023-04-07T07:53:10;23.50;31.80
65072;DHT22;51663;52.310;17.016;2023-04-07T07:56:13;23.90;31.50
65072;DHT22;51663;52.310;17.016;2023-04-07T07:59:15;24.00;31.70
65072;DHT22;51663;52.310;17.016;2023-04-07T08:02:18;23.50;32.10
65072;DHT22;51663;52.310;17.016;2023-04-07T08:05:21;23.80;31.70
65072;DHT22;51663;52.310;17.016;2023-04-07T08:08:23;23.70;32.00
65072;DHT22;51663;52.310;17.016;2023-04-07T08:11:25;23.60;31.70
65072;DHT22;51663;52.310;17.016;2023-04-07T08:14:27;23.80;32.10
65072;DHT22;51663;52.310;17.016;2023-04-07T08:17:29;24.10;31.60
65072;DHT22;51663;52.310;17.016;2023-04-07T08:20:32;23.60;32.30
65072;DHT22;51663;52.310;17.016;2023-04-07T08:23:34;24.40;31.40
65072;DHT22;51663;52.310;17.016;2023-04-07T08:26:37;24.10;32.00
65072;DHT22;51663;52.310;17.016;2023-04-07T08:29:39;24.40;31.00
65072;DHT22;51663;52.310;17.016;2023-04-07T08:32:42;23.90;31.70
65072;DHT22;51663;52.310;17.016;2023-04-07T08:35:45;24.20;31.40
65072;DHT22;51663;52.310;17.016;2023-04-07T08:38:48;24.60;31.30
65072;DHT22;51663;52.310;17.016;2023-04-07T08:41:50;24.80;30.90
65072;DHT22;51663;52.310;17.016;2023-04-07T08:44:54;24.80;31.00
65072;DHT22;51663;52.310;17.016;2023-04-07T08:47:58;25.50;30.10
65072;DHT22;51663;52.310;17.016;2023-04-07T08:51:06;25.30;30.30
65072;DHT22;51663;52.310;17.016;2023-04-07T08:54:13;25.20;30.30
65072;DHT22;51663;52.310;17.016;2023-04-07T08:57:16;25.40;30.30
65072;DHT22;51663;52.310;17.016;2023-04-07T09:00:21;24.80;30.70
65072;DHT22;51663;52.310;17.016;2023-04-07T09:03:24;24.60;31.40
65072;DHT22;51663;52.310;17.016;2023-04-07T09:06:29;25.10;30.90
65072;DHT22;51663;52.310;17.016;2023-04-07T09:09:32;25.20;30.60
65072;DHT22;51663;52.310;17.016;2023-04-07T09:12:41;25.40;30.50
65072;DHT22;51663;52.310;17.016;2023-04-07T09:15:45;25.00;30.50
65072;DHT22;51663;52.310;17.016;2023-04-07T09:18:52;24.10;31.60
65072;DHT22;51663;52.310;17.016;2023-04-07T09:21:54;23.70;32.70
65072;DHT22;51663;52.310;17.016;2023-04-07T09:28:18;24.60;32.00
65072;DHT22;51663;52.310;17.016;2023-04-07T09:31:42;25.90;30.80
65072;DHT22;51663;52.310;17.016;2023-04-07T09:35:11;26.20;30.00
65072;DHT22;51663;52.310;17.016;2023-04-07T09:38:33;26.70;29.40
65072;DHT22;51663;52.310;17.016;2023-04-07T09:42:05;26.40;30.00
65072;DHT22;51663;52.310;17.016;2023-04-07T09:45:23;27.40;29.00
65072;DHT22;51663;52.310;17.016;2023-04-07T09:48:41;26.60;29.00
65072;DHT22;51663;52.310;17.016;2023-04-07T09:52:16;26.80;29.30
65072;DHT22;51663;52.310;17.016;2023-04-07T09:55:28;26.10;29.60
65072;DHT22;51663;52.310;17.016;2023-04-07T09:58:50;25.60;30.40
65072;DHT22;51663;52.310;17.016;2023-04-07T10:01:54;25.10;31.50
65072;DHT22;51663;52.310;17.016;2023-04-07T10:05:18;25.50;31.10
65072;DHT22;51663;52.310;17.016;2023-04-07T10:08:35;25.40;31.10
65072;DHT22;51663;52.310;17.016;2023-04-07T10:11:44;25.80;30.70
65072;DHT22;51663;52.310;17.016;2023-04-07T10:14:50;25.10;31.90
65072;DHT22;51663;52.310;17.016;2023-04-07T10:18:02;25.50;31.50
65072;DHT22;51663;52.310;17.016;2023-04-07T10:21:23;25.80;30.80
65072;DHT22;51663;52.310;17.016;2023-04-07T10:25:12;25.80;31.30
65072;DHT22;51663;52.310;17.016;2023-04-07T10:28:18;25.30;32.00
65072;DHT22;51663;52.310;17.016;2023-04-07T10:31:53;26.00;31.10
65072;DHT22;51663;52.310;17.016;2023-04-07T10:45:57;26.60;30.50
65072;DHT22;51663;52.310;17.016;2023-04-07T10:49:17;26.50;30.20
65072;DHT22;51663;52.310;17.016;2023-04-07T10:52:28;27.00;30.00
65072;DHT22;51663;52.310;17.016;2023-04-07T10:55:45;26.60;30.20
65072;DHT22;51663;52.310;17.016;2023-04-07T10:59:15;25.40;32.00
65072;DHT22;51663;52.310;17.016;2023-04-07T11:05:30;26.20;31.30
65072;DHT22;51663;52.310;17.016;2023-04-07T11:08:48;26.20;31.30
65072;DHT22;51663;52.310;17.016;2023-04-07T11:11:52;26.20;31.30
65072;DHT22;51663;52.310;17.016;2023-04-07T11:15:18;26.30;30.80
65072;DHT22;51663;52.310;17.016;2023-04-07T11:18:28;26.60;30.30
65072;DHT22;51663;52.310;17.016;2023-04-07T11:22:12;26.00;31.10
65072;DHT22;51663;52.310;17.016;2023-04-07T11:25:45;25.80;31.90
65072;DHT22;51663;52.310;17.016;2023-04-07T11:29:01;26.30;31.20
65072;DHT22;51663;52.310;17.016;2023-04-07T11:32:21;26.40;31.20
65072;DHT22;51663;52.310;17.016;2023-04-07T11:35:30;25.80;32.00
65072;DHT22;51663;52.310;17.016;2023-04-07T11:38:39;25.90;31.30
65072;DHT22;51663;52.310;17.016;2023-04-07T11:41:48;25.80;32.00
65072;DHT22;51663;52.310;17.016;2023-04-07T11:44:58;26.10;31.60
65072;DHT22;51663;52.310;17.016;2023-04-07T11:48:31;26.00;31.60
65072;DHT22;51663;52.310;17.016;2023-04-07T11:52:00;26.00;31.50
65072;DHT22;51663;52.310;17.016;2023-04-07T11:55:22;26.70;31.10
65072;DHT22;51663;52.310;17.016;2023-04-07T11:58:45;26.70;31.10
65072;DHT22;51663;52.310;17.016;2023-04-07T12:01:52;27.20;30.20
65072;DHT22;51663;52.310;17.016;2023-04-07T12:04:58;26.70;30.70
65072;DHT22;51663;52.310;17.016;2023-04-07T12:08:29;26.10;31.50
65072;DHT22;51663;52.310;17.016;2023-04-07T12:11:49;26.50;31.20
65072;DHT22;51663;52.310;17.016;2023-04-07T12:15:28;26.30;31.50
65072;DHT22;51663;52.310;17.016;2023-04-07T12:18:42;26.30;31.60
65072;DHT22;51663;52.310;17.016;2023-04-07T12:21:59;26.70;31.20
65072;DHT22;51663;52.310;17.016;2023-04-07T12:25:06;27.00;31.00
65072;DHT22;51663;52.310;17.016;2023-04-07T12:28:08;26.70;30.90
65072;DHT22;51663;52.310;17.016;2023-04-07T12:31:30;26.40;31.50
65072;DHT22;51663;52.310;17.016;2023-04-07T12:34:39;27.20;31.20
65072;DHT22;51663;52.310;17.016;2023-04-07T12:37:57;27.80;30.00
65072;DHT22;51663;52.310;17.016;2023-04-07T12:41:02;28.30;29.70
65072;DHT22;51663;52.310;17.016;2023-04-07T12:44:08;27.70;30.00
65072;DHT22;51663;52.310;17.016;2023-04-07T12:47:15;27.60;30.10
65072;DHT22;51663;52.310;17.016;2023-04-07T12:50:18;26.90;30.50
65072;DHT22;51663;52.310;17.016;2023-04-07T12:53:21;26.50;31.20
65072;DHT22;51663;52.310;17.016;2023-04-07T12:56:26;26.40;31.70
65072;DHT22;51663;52.310;17.016;2023-04-07T12:59:31;26.70;31.70
65072;DHT22;51663;52.310;17.016;2023-04-07T13:02:34;26.40;32.20
65072;DHT22;51663;52.310;17.016;2023-04-07T13:05:38;26.50;31.60
65072;DHT22;51663;52.310;17.016;2023-04-07T13:08:41;25.80;32.80
65072;DHT22;51663;52.310;17.016;2023-04-07T13:11:43;25.60;33.30
65072;DHT22;51663;52.310;17.016;2023-04-07T13:14:47;26.10;32.50
65072;DHT22;51663;52.310;17.016;2023-04-07T13:18:00;25.40;33.70
65072;DHT22;51663;52.310;17.016;2023-04-07T13:21:03;26.00;33.10
65072;DHT22;51663;52.310;17.016;2023-04-07T13:24:26;26.10;32.50
65072;DHT22;51663;52.310;17.016;2023-04-07T13:27:28;25.30;33.70
65072;DHT22;51663;52.310;17.016;2023-04-07T13:30:30;25.40;34.00
65072;DHT22;51663;52.310;17.016;2023-04-07T13:33:33;26.10;33.50
65072;DHT22;51663;52.310;17.016;2023-04-07T13:36:35;26.40;32.40
65072;DHT22;51663;52.310;17.016;2023-04-07T13:39:38;26.30;32.90
65072;DHT22;51663;52.310;17.016;2023-04-07T13:42:40;27.20;31.80
65072;DHT22;51663;52.310;17.016;2023-04-07T13:45:42;27.40;31.00
65072;DHT22;51663;52.310;17.016;2023-04-07T13:48:44;26.90;31.50
65072;DHT22;51663;52.310;17.016;2023-04-07T13:51:47;27.40;31.20
65072;DHT22;51663;52.310;17.016;2023-04-07T13:54:50;27.40;30.80
65072;DHT22;51663;52.310;17.016;2023-04-07T13:57:52;27.90;30.70
65072;DHT22;51663;52.310;17.016;2023-04-07T14:00:54;27.40;30.80
65072;DHT22;51663;52.310;17.016;2023-04-07T14:03:59;26.70;32.30
65072;DHT22;51663;52.310;17.016;2023-04-07T14:07:01;27.40;31.70
65072;DHT22;51663;52.310;17.016;2023-04-07T14:10:04;27.80;31.00
65072;DHT22;51663;52.310;17.016;2023-04-07T14:13:10;27.80;30.80
65072;DHT22;51663;52.310;17.016;2023-04-07T14:16:13;27.50;31.30
65072;DHT22;51663;52.310;17.016;2023-04-07T14:19:15;26.80;32.40
65072;DHT22;51663;52.310;17.016;2023-04-07T14:22:17;26.40;33.20
65072;DHT22;51663;52.310;17.016;2023-04-07T14:25:20;26.70;32.90
65072;DHT22;51663;52.310;17.016;2023-04-07T14:28:26;26.60;33.00
65072;DHT22;51663;52.310;17.016;2023-04-07T14:31:28;26.60;33.20
65072;DHT22;51663;52.310;17.016;2023-04-07T14:34:30;26.20;33.70
65072;DHT22;51663;52.310;17.016;2023-04-07T14:37:38;26.10;33.50
65072;DHT22;51663;52.310;17.016;2023-04-07T14:40:43;25.70;33.80
65072;DHT22;51663;52.310;17.016;2023-04-07T14:43:53;25.80;34.50
65072;DHT22;51663;52.310;17.016;2023-04-07T14:47:05;26.20;34.00
65072;DHT22;51663;52.310;17.016;2023-04-07T14:50:07;26.40;34.10
65072;DHT22;51663;52.310;17.016;2023-04-07T14:53:11;26.80;33.40
65072;DHT22;51663;52.310;17.016;2023-04-07T14:56:32;27.60;32.20
65072;DHT22;51663;52.310;17.016;2023-04-07T14:59:47;28.10;31.40
65072;DHT22;51663;52.310;17.016;2023-04-07T15:02:49;28.00;31.30
65072;DHT22;51663;52.310;17.016;2023-04-07T15:05:56;27.80;31.20
65072;DHT22;51663;52.310;17.016;2023-04-07T15:09:06;26.90;33.10
65072;DHT22;51663;52.310;17.016;2023-04-07T15:12:09;26.60;33.80
65072;DHT22;51663;52.310;17.016;2023-04-07T15:15:16;26.90;33.30
65072;DHT22;51663;52.310;17.016;2023-04-07T15:18:18;27.60;32.10
65072;DHT22;51663;52.310;17.016;2023-04-07T15:21:21;27.70;31.90
65072;DHT22;51663;52.310;17.016;2023-04-07T15:24:26;28.10;31.70
65072;DHT22;51663;52.310;17.016;2023-04-07T15:27:33;28.70;30.80
65072;DHT22;51663;52.310;17.016;2023-04-07T15:30:35;28.70;31.00
65072;DHT22;51663;52.310;17.016;2023-04-07T15:33:39;28.80;30.70
65072;DHT22;51663;52.310;17.016;2023-04-07T15:36:41;28.90;30.10
65072;DHT22;51663;52.310;17.016;2023-04-07T15:39:43;29.20;30.10
65072;DHT22;51663;52.310;17.016;2023-04-07T15:42:45;29.00;30.10
65072;DHT22;51663;52.310;17.016;2023-04-07T15:45:48;29.10;30.10
65072;DHT22;51663;52.310;17.016;2023-04-07T15:48:50;29.20;29.90
65072;DHT22;51663;52.310;17.016;2023-04-07T15:51:52;29.70;29.50
65072;DHT22;51663;52.310;17.016;2023-04-07T15:54:54;29.30;29.80
65072;DHT22;51663;52.310;17.016;2023-04-07T15:58:01;29.50;29.50
65072;DHT22;51663;52.310;17.016;2023-04-07T16:01:12;29.10;29.80
65072;DHT22;51663;52.310;17.016;2023-04-07T16:04:14;29.20;29.90
65072;DHT22;51663;52.310;17.016;2023-04-07T16:07:17;29.30;29.90
65072;DHT22;51663;52.310;17.016;2023-04-07T16:10:22;29.60;29.60
65072;DHT22;51663;52.310;17.016;2023-04-07T16:13:27;29.00;30.00
65072;DHT22;51663;52.310;17.016;2023-04-07T16:16:30;29.30;29.90
65072;DHT22;51663;52.310;17.016;2023-04-07T16:19:33;29.30;29.70
65072;DHT22;51663;52.310;17.016;2023-04-07T16:22:35;29.40;30.00
65072;DHT22;51663;52.310;17.016;2023-04-07T16:25:37;29.80;29.50
65072;DHT22;51663;52.310;17.016;2023-04-07T16:28:39;29.70;29.60
65072;DHT22;51663;52.310;17.016;2023-04-07T16:31:43;30.00;29.40
65072;DHT22;51663;52.310;17.016;2023-04-07T16:34:49;30.20;29.10
65072;DHT22;51663;52.310;17.016;2023-04-07T16:37:52;30.30;28.90
65072;DHT22;51663;52.310;17.016;2023-04-07T16:40:55;30.10;29.30
65072;DHT22;51663;52.310;17.016;2023-04-07T16:44:05;30.30;29.00
65072;DHT22;51663;52.310;17.016;2023-04-07T16:47:07;30.30;29.00
65072;DHT22;51663;52.310;17.016;2023-04-07T16:50:10;30.40;28.90
65072;DHT22;51663;52.310;17.016;2023-04-07T16:53:12;30.40;28.90
65072;DHT22;51663;52.310;17.016;2023-04-07T16:56:17;30.30;29.00
65072;DHT22;51663;52.310;17.016;2023-04-07T16:59:20;30.50;28.90
65072;DHT22;51663;52.310;17.016;2023-04-07T17:02:22;30.30;28.90
65072;DHT22;51663;52.310;17.016;2023-04-07T17:05:25;30.10;29.20
65072;DHT22;51663;52.310;17.016;2023-04-07T17:08:27;30.00;29.30
65072;DHT22;51663;52.310;17.016;2023-04-07T17:11:29;30.10;29.30
65072;DHT22;51663;52.310;17.016;2023-04-07T17:14:32;30.20;29.20
65072;DHT22;51663;52.310;17.016;2023-04-07T17:17:34;30.40;29.00
65072;DHT22;51663;52.310;17.016;2023-04-07T17:20:36;30.30;29.00
65072;DHT22;51663;52.310;17.016;2023-04-07T17:23:38;30.30;29.30
65072;DHT22;51663;52.310;17.016;2023-04-07T17:26:44;29.60;29.60
65072;DHT22;51663;52.310;17.016;2023-04-07T17:29:52;29.60;30.00
65072;DHT22;51663;52.310;17.016;2023-04-07T17:32:55;29.00;30.30
65072;DHT22;51663;52.310;17.016;2023-04-07T17:35:57;28.90;30.80
65072;DHT22;51663;52.310;17.016;2023-04-07T17:39:04;28.90;30.60
65072;DHT22;51663;52.310;17.016;2023-04-07T17:42:28;28.80;30.80
65072;DHT22;51663;52.310;17.016;2023-04-07T17:45:30;29.00;31.10
65072;DHT22;51663;52.310;17.016;2023-04-07T17:48:33;29.30;30.70
65072;DHT22;51663;52.310;17.016;2023-04-07T17:51:36;28.90;30.90
65072;DHT22;51663;52.310;17.016;2023-04-07T17:54:38;29.10;30.70
65072;DHT22;51663;52.310;17.016;2023-04-07T17:57:40;28.80;31.60
65072;DHT22;51663;52.310;17.016;2023-04-07T18:00:42;28.40;32.00
65072;DHT22;51663;52.310;17.016;2023-04-07T18:03:45;28.40;32.10
65072;DHT22;51663;52.310;17.016;2023-04-07T18:06:49;28.80;31.70
65072;DHT22;51663;52.310;17.016;2023-04-07T18:09:52;28.80;31.60
65072;DHT22;51663;52.310;17.016;2023-04-07T18:12:55;28.40;31.90
65072;DHT22;51663;52.310;17.016;2023-04-07T18:15:58;28.50;32.10
65072;DHT22;51663;52.310;17.016;2023-04-07T18:19:01;29.30;31.30
65072;DHT22;51663;52.310;17.016;2023-04-07T18:22:04;29.60;30.50
65072;DHT22;51663;52.310;17.016;2023-04-07T18:25:07;29.50;30.90
65072;DHT22;51663;52.310;17.016;2023-04-07T18:28:10;29.30;30.90
65072;DHT22;51663;52.310;17.016;2023-04-07T18:31:12;29.60;30.50
65072;DHT22;51663;52.310;17.016;2023-04-07T18:34:16;30.00;30.10
65072;DHT22;51663;52.310;17.016;2023-04-07T18:37:18;29.70;30.30
65072;DHT22;51663;52.310;17.016;2023-04-07T18:40:20;30.20;30.10
65072;DHT22;51663;52.310;17.016;2023-04-07T18:43:23;30.20;30.00
65072;DHT22;51663;52.310;17.016;2023-04-07T18:46:26;30.60;29.70
65072;DHT22;51663;52.310;17.016;2023-04-07T18:49:28;30.60;29.70
65072;DHT22;51663;52.310;17.016;2023-04-07T18:52:31;30.60;29.60
65072;DHT22;51663;52.310;17.016;2023-04-07T18:55:33;30.10;30.10
65072;DHT22;51663;52.310;17.016;2023-04-07T18:58:35;29.20;31.20
65072;DHT22;51663;52.310;17.016;2023-04-07T19:01:44;28.80;32.10
65072;DHT22;51663;52.310;17.016;2023-04-07T19:04:47;28.60;32.30
65072;DHT22;51663;52.310;17.016;2023-04-07T19:07:50;27.90;33.30
65072;DHT22;51663;52.310;17.016;2023-04-07T19:10:52;28.40;33.00
65072;DHT22;51663;52.310;17.016;2023-04-07T19:13:54;28.10;33.20
65072;DHT22;51663;52.310;17.016;2023-04-07T19:16:57;28.20;32.70
65072;DHT22;51663;52.310;17.016;2023-04-07T19:19:59;28.60;33.10
65072;DHT22;51663;52.310;17.016;2023-04-07T19:23:03;27.50;34.40
65072;DHT22;51663;52.310;17.016;2023-04-07T19:26:05;28.20;33.70
65072;DHT22;51663;52.310;17.016;2023-04-07T19:29:07;28.40;33.30
65072;DHT22;51663;52.310;17.016;2023-04-07T19:32:11;28.10;33.20
65072;DHT22;51663;52.310;17.016;2023-04-07T19:35:14;28.30;33.20
65072;DHT22;51663;52.310;17.016;2023-04-07T19:38:17;28.30;33.10
65072;DHT22;51663;52.310;17.016;2023-04-07T19:41:19;28.80;32.50